Monte Alto, Texas
Current Conditions -  °F | °C
As of 11:55 PM on Saturday 20 Dec 2014 (Local Time) from KT65 Reporting Station
Overcast Overcast  
Wind Chill: 56°   Ceiling: 1100
Heat Index: 56°   Visibility: 7mi
Dew Point: 51°   Wind: 6mph
Humidity: 84%   Direction: 350°N
Pressure: 30.14"   Gusts: NA
Location:  26.3131°N, 97.9381°W
Report Text: KT65 210555Z AUTO 35005KT 7SM OVC011 13/11 A3014 RMK AO2 T01310105 10135 20131 401600131
Loading
Personal Weather Stations






























Interactive Weather Map New forecast layout! Learn more

10-Day Weather Forecast

Advertisements
Track Severe Weather on mobile